Liverpool, Illinois
Current Conditions -  °F | °C
As of 2:54 AM on Monday 22 Dec 2014 (Local Time) from KPIA Reporting Station
Light Rain Light Rain  
Wind Chill:   Ceiling: 4000
Heat Index:   Visibility: 7mi
Dew Point: -1°   Wind: 8mph
Humidity: 73%   Direction: 140°SE
Pressure: 29.92"   Gusts: NA
Location:  40.39°N, 90°W
Report Text: KPIA 220854Z 14007KT 7SM -RA BKN040 BKN050 OVC060 03/M01 A2992 RMK AO2 RAB46 SLP135 P0000 60000 T00331011 58010
Loading
Personal Weather Stations






























Interactive Weather Map New forecast layout! Learn more

10-Day Weather Forecast

Advertisements
Track Severe Weather on mobile